sensor_id;sensor_type;location;lat;lon;timestamp;pressure;altitude;pressure_sealevel;temperature;humidity
59240;BME280;45010;53.640;10.578;2023-02-16T00:01:45;101555.09;;;25.42;31.56
59240;BME280;45010;53.640;10.578;2023-02-16T00:04:45;101556.34;;;25.39;31.73
59240;BME280;45010;53.640;10.578;2023-02-16T00:07:46;101549.34;;;25.38;31.72
59240;BME280;45010;53.640;10.578;2023-02-16T00:10:46;101545.03;;;25.37;31.37
59240;BME280;45010;53.640;10.578;2023-02-16T00:14:08;101543.22;;;25.31;31.33
59240;BME280;45010;53.640;10.578;2023-02-16T00:17:09;101534.63;;;25.29;31.42
59240;BME280;45010;53.640;10.578;2023-02-16T00:20:14;101517.06;;;25.15;31.46
59240;BME280;45010;53.640;10.578;2023-02-16T00:23:15;101512.97;;;25.12;31.31
59240;BME280;45010;53.640;10.578;2023-02-16T00:26:22;101544.09;;;25.25;31.49
59240;BME280;45010;53.640;10.578;2023-02-16T00:29:28;101524.81;;;25.23;31.57
59240;BME280;45010;53.640;10.578;2023-02-16T00:32:30;101531.59;;;25.19;31.52
59240;BME280;45010;53.640;10.578;2023-02-16T00:35:30;101528.94;;;25.19;31.42
59240;BME280;45010;53.640;10.578;2023-02-16T00:38:30;101528.34;;;25.17;31.44
59240;BME280;45010;53.640;10.578;2023-02-16T00:41:31;101533.09;;;25.15;31.42
59240;BME280;45010;53.640;10.578;2023-02-16T00:44:51;101521.59;;;25.07;31.50
59240;BME280;45010;53.640;10.578;2023-02-16T00:47:53;101535.56;;;25.09;31.49
59240;BME280;45010;53.640;10.578;2023-02-16T00:50:53;101526.94;;;25.07;31.42
59240;BME280;45010;53.640;10.578;2023-02-16T00:53:54;101530.66;;;25.06;31.55
59240;BME280;45010;53.640;10.578;2023-02-16T00:56:54;101530.25;;;25.03;31.59
59240;BME280;45010;53.640;10.578;2023-02-16T01:00:11;101519.03;;;24.94;31.60
59240;BME280;45010;53.640;10.578;2023-02-16T01:03:15;101522.91;;;24.98;31.50
59240;BME280;45010;53.640;10.578;2023-02-16T01:06:16;101521.28;;;24.97;31.63
59240;BME280;45010;53.640;10.578;2023-02-16T01:09:35;101518.00;;;24.95;31.29
59240;BME280;45010;53.640;10.578;2023-02-16T01:12:54;101521.69;;;24.94;31.73
59240;BME280;45010;53.640;10.578;2023-02-16T01:15:55;101506.53;;;24.88;31.67
59240;BME280;45010;53.640;10.578;2023-02-16T01:18:55;101510.63;;;24.90;31.57
59240;BME280;45010;53.640;10.578;2023-02-16T01:21:56;101511.88;;;24.88;31.58
59240;BME280;45010;53.640;10.578;2023-02-16T01:24:56;101513.94;;;24.85;31.56
59240;BME280;45010;53.640;10.578;2023-02-16T01:27:56;101521.31;;;24.83;31.55
59240;BME280;45010;53.640;10.578;2023-02-16T01:30:57;101518.06;;;24.81;31.53
59240;BME280;45010;53.640;10.578;2023-02-16T01:33:57;101526.25;;;24.80;31.51
59240;BME280;45010;53.640;10.578;2023-02-16T01:36:57;101516.81;;;24.77;31.60
59240;BME280;45010;53.640;10.578;2023-02-16T01:39:58;101513.56;;;24.75;31.74
59240;BME280;45010;53.640;10.578;2023-02-16T01:43:19;101498.78;;;24.72;31.67
59240;BME280;45010;53.640;10.578;2023-02-16T01:46:31;101502.69;;;24.70;31.78
59240;BME280;45010;53.640;10.578;2023-02-16T01:49:35;101507.44;;;24.68;31.86
59240;BME280;45010;53.640;10.578;2023-02-16T01:52:40;101507.03;;;24.64;31.81
59240;BME280;45010;53.640;10.578;2023-02-16T01:55:43;101499.25;;;24.63;31.65
59240;BME280;45010;53.640;10.578;2023-02-16T01:58:47;101475.91;;;24.51;31.77
59240;BME280;45010;53.640;10.578;2023-02-16T02:01:55;101492.69;;;24.58;31.76
59240;BME280;45010;53.640;10.578;2023-02-16T02:05:01;101471.63;;;24.50;31.95
59240;BME280;45010;53.640;10.578;2023-02-16T02:08:29;101481.25;;;24.51;31.82
59240;BME280;45010;53.640;10.578;2023-02-16T02:11:35;101482.09;;;24.45;32.04
59240;BME280;45010;53.640;10.578;2023-02-16T02:14:38;101469.78;;;24.44;31.80
59240;BME280;45010;53.640;10.578;2023-02-16T02:17:39;101483.72;;;24.46;31.85
59240;BME280;45010;53.640;10.578;2023-02-16T02:28:07;101486.63;;;24.38;32.08
59240;BME280;45010;53.640;10.578;2023-02-16T02:31:23;101480.72;;;24.36;31.96
59240;BME280;45010;53.640;10.578;2023-02-16T02:37:56;101472.13;;;24.27;31.96
59240;BME280;45010;53.640;10.578;2023-02-16T02:44:48;101475.59;;;24.27;32.01
59240;BME280;45010;53.640;10.578;2023-02-16T02:47:50;101476.03;;;24.24;32.16
59240;BME280;45010;53.640;10.578;2023-02-16T02:50:58;101464.56;;;24.17;32.03
59240;BME280;45010;53.640;10.578;2023-02-16T02:54:22;101470.50;;;24.19;32.14
59240;BME280;45010;53.640;10.578;2023-02-16T02:57:44;101475.22;;;24.17;32.08
59240;BME280;45010;53.640;10.578;2023-02-16T03:01:07;101475.66;;;24.14;32.11
59240;BME280;45010;53.640;10.578;2023-02-16T03:04:11;101456.38;;;24.12;32.23
59240;BME280;45010;53.640;10.578;2023-02-16T03:07:14;101449.00;;;24.00;32.26
59240;BME280;45010;53.640;10.578;2023-02-16T03:10:20;101461.28;;;24.08;32.05
59240;BME280;45010;53.640;10.578;2023-02-16T03:13:43;101442.88;;;23.93;32.09
59240;BME280;45010;53.640;10.578;2023-02-16T03:16:53;101456.38;;;23.98;32.19
59240;BME280;45010;53.640;10.578;2023-02-16T03:20:15;101460.28;;;24.02;32.25
59240;BME280;45010;53.640;10.578;2023-02-16T03:23:35;101458.03;;;23.99;32.26
59240;BME280;45010;53.640;10.578;2023-02-16T03:26:57;101444.09;;;23.97;32.05
59240;BME280;45010;53.640;10.578;2023-02-16T03:30:18;101450.44;;;23.96;32.44
59240;BME280;45010;53.640;10.578;2023-02-16T03:33:19;101449.84;;;23.94;32.16
59240;BME280;45010;53.640;10.578;2023-02-16T03:36:26;101458.03;;;23.92;32.15
59240;BME280;45010;53.640;10.578;2023-02-16T03:39:27;101461.75;;;23.91;32.25
59240;BME280;45010;53.640;10.578;2023-02-16T03:42:28;101466.22;;;23.91;32.41
59240;BME280;45010;53.640;10.578;2023-02-16T03:45:30;101464.59;;;23.90;32.43
59240;BME280;45010;53.640;10.578;2023-02-16T03:48:31;101458.44;;;23.89;32.12
59240;BME280;45010;53.640;10.578;2023-02-16T03:51:31;101461.34;;;23.88;32.24
59240;BME280;45010;53.640;10.578;2023-02-16T03:54:32;101449.03;;;23.87;32.14
59240;BME280;45010;53.640;10.578;2023-02-16T03:57:32;101446.59;;;23.85;32.51
59240;BME280;45010;53.640;10.578;2023-02-16T04:00:34;101437.56;;;23.80;32.38
59240;BME280;45010;53.640;10.578;2023-02-16T04:03:34;101447.81;;;23.83;32.63
59240;BME280;45010;53.640;10.578;2023-02-16T04:06:35;101440.84;;;23.82;32.44
59240;BME280;45010;53.640;10.578;2023-02-16T04:09:35;101433.88;;;23.81;32.32
59240;BME280;45010;53.640;10.578;2023-02-16T04:12:35;101437.56;;;23.80;32.39
59240;BME280;45010;53.640;10.578;2023-02-16T04:15:36;101436.78;;;23.79;32.47
59240;BME280;45010;53.640;10.578;2023-02-16T04:18:36;101428.97;;;23.77;32.73
59240;BME280;45010;53.640;10.578;2023-02-16T04:21:36;101431.03;;;23.75;32.39
59240;BME280;45010;53.640;10.578;2023-02-16T04:24:37;101432.88;;;23.75;32.71
59240;BME280;45010;53.640;10.578;2023-02-16T04:27:37;101427.75;;;23.73;32.84
59240;BME280;45010;53.640;10.578;2023-02-16T04:30:38;101421.63;;;23.73;32.67
59240;BME280;45010;53.640;10.578;2023-02-16T04:33:38;101404.41;;;23.62;32.83
59240;BME280;45010;53.640;10.578;2023-02-16T04:36:39;101425.50;;;23.70;32.58
59240;BME280;45010;53.640;10.578;2023-02-16T04:39:39;101415.91;;;23.69;32.78
59240;BME280;45010;53.640;10.578;2023-02-16T04:42:40;101412.59;;;23.67;32.72
59240;BME280;45010;53.640;10.578;2023-02-16T04:45:40;101413.03;;;23.64;32.57
59240;BME280;45010;53.640;10.578;2023-02-16T04:48:41;101416.72;;;23.63;32.86
59240;BME280;45010;53.640;10.578;2023-02-16T04:51:41;101416.28;;;23.66;32.54
59240;BME280;45010;53.640;10.578;2023-02-16T04:54:41;101423.69;;;23.64;32.82
59240;BME280;45010;53.640;10.578;2023-02-16T04:57:42;101414.06;;;23.63;32.79
59240;BME280;45010;53.640;10.578;2023-02-16T05:00:43;101412.41;;;23.62;32.76
59240;BME280;45010;53.640;10.578;2023-02-16T05:03:43;101418.75;;;23.61;32.62
59240;BME280;45010;53.640;10.578;2023-02-16T05:06:43;101408.09;;;23.61;32.88
59240;BME280;45010;53.640;10.578;2023-02-16T05:09:44;101417.97;;;23.60;32.95
59240;BME280;45010;53.640;10.578;2023-02-16T05:12:44;101346.28;;;23.18;32.73
59240;BME280;45010;53.640;10.578;2023-02-16T05:16:03;101415.50;;;23.59;33.12
59240;BME280;45010;53.640;10.578;2023-02-16T05:19:04;101416.53;;;23.58;32.84
59240;BME280;45010;53.640;10.578;2023-02-16T05:22:04;101413.03;;;23.57;32.89
59240;BME280;45010;53.640;10.578;2023-02-16T05:25:06;101412.63;;;23.54;32.66
59240;BME280;45010;53.640;10.578;2023-02-16T05:28:06;101414.25;;;23.55;32.82
59240;BME280;45010;53.640;10.578;2023-02-16T05:31:07;101405.25;;;23.56;32.78
59240;BME280;45010;53.640;10.578;2023-02-16T05:34:07;101409.78;;;23.55;32.70
59240;BME280;45010;53.640;10.578;2023-02-16T05:37:07;101401.97;;;23.54;32.79
59240;BME280;45010;53.640;10.578;2023-02-16T05:40:08;101398.28;;;23.55;33.00
59240;BME280;45010;53.640;10.578;2023-02-16T05:43:08;101407.31;;;23.54;33.19
59240;BME280;45010;53.640;10.578;2023-02-16T05:46:08;101412.63;;;23.54;32.94
59240;BME280;45010;53.640;10.578;2023-02-16T05:49:09;101403.63;;;23.48;32.99
59240;BME280;45010;53.640;10.578;2023-02-16T05:52:09;101408.34;;;23.53;33.07
59240;BME280;45010;53.640;10.578;2023-02-16T05:55:10;101404.25;;;23.50;33.09
59240;BME280;45010;53.640;10.578;2023-02-16T05:58:10;101392.38;;;23.39;32.90
59240;BME280;45010;53.640;10.578;2023-02-16T06:01:11;101413.47;;;23.47;32.96
59240;BME280;45010;53.640;10.578;2023-02-16T06:04:12;101424.31;;;23.53;33.44
59240;BME280;45010;53.640;10.578;2023-02-16T06:07:13;101432.91;;;23.55;33.74
59240;BME280;45010;53.640;10.578;2023-02-16T06:10:14;101422.84;;;23.57;33.51
59240;BME280;45010;53.640;10.578;2023-02-16T06:13:16;101412.63;;;23.54;33.68
59240;BME280;45010;53.640;10.578;2023-02-16T06:16:16;101416.28;;;23.59;33.62
59240;BME280;45010;53.640;10.578;2023-02-16T06:19:17;101403.81;;;23.53;33.91
59240;BME280;45010;53.640;10.578;2023-02-16T06:22:18;101429.00;;;23.64;33.99
59240;BME280;45010;53.640;10.578;2023-02-16T06:25:18;101418.75;;;23.68;33.75
59240;BME280;45010;53.640;10.578;2023-02-16T06:28:19;101415.47;;;23.72;33.55
59240;BME280;45010;53.640;10.578;2023-02-16T06:31:20;101399.91;;;23.69;33.95
59240;BME280;45010;53.640;10.578;2023-02-16T06:34:20;101411.38;;;23.76;33.57
59240;BME280;45010;53.640;10.578;2023-02-16T06:37:20;101406.63;;;23.78;34.04
59240;BME280;45010;53.640;10.578;2023-02-16T06:40:21;101416.88;;;23.82;33.83
59240;BME280;45010;53.640;10.578;2023-02-16T06:43:21;101413.78;;;23.85;33.77
59240;BME280;45010;53.640;10.578;2023-02-16T06:46:22;101415.81;;;23.89;33.38
59240;BME280;45010;53.640;10.578;2023-02-16T06:49:22;101424.44;;;23.91;33.10
59240;BME280;45010;53.640;10.578;2023-02-16T06:52:22;101417.88;;;23.94;33.16
59240;BME280;45010;53.640;10.578;2023-02-16T06:55:22;101415.81;;;23.96;33.08
59240;BME280;45010;53.640;10.578;2023-02-16T06:58:23;101423.59;;;23.98;33.29
59240;BME280;45010;53.640;10.578;2023-02-16T07:01:23;101405.56;;;24.00;33.08
59240;BME280;45010;53.640;10.578;2023-02-16T07:04:24;101403.28;;;24.03;33.11
59240;BME280;45010;53.640;10.578;2023-02-16T07:07:25;101402.25;;;24.04;32.96
59240;BME280;45010;53.640;10.578;2023-02-16T07:10:25;101405.53;;;24.07;32.81
59240;BME280;45010;53.640;10.578;2023-02-16T07:13:25;101417.84;;;24.08;33.03
59240;BME280;45010;53.640;10.578;2023-02-16T07:16:26;101412.09;;;24.11;33.17
59240;BME280;45010;53.640;10.578;2023-02-16T07:19:26;101408.19;;;24.13;33.40
59240;BME280;45010;53.640;10.578;2023-02-16T07:22:26;101411.47;;;24.15;33.22
59240;BME280;45010;53.640;10.578;2023-02-16T07:25:28;101405.91;;;24.17;32.97
59240;BME280;45010;53.640;10.578;2023-02-16T07:28:29;101410.84;;;24.20;33.27
59240;BME280;45010;53.640;10.578;2023-02-16T07:31:29;101417.81;;;24.21;33.17
59240;BME280;45010;53.640;10.578;2023-02-16T07:34:30;101414.94;;;24.23;33.19
59240;BME280;45010;53.640;10.578;2023-02-16T07:37:30;101405.06;;;24.23;33.12
59240;BME280;45010;53.640;10.578;2023-02-16T07:40:31;101408.19;;;24.20;33.12
59240;BME280;45010;53.640;10.578;2023-02-16T07:43:31;101414.28;;;24.27;33.00
59240;BME280;45010;53.640;10.578;2023-02-16T07:46:32;101413.69;;;24.25;33.04
59240;BME280;45010;53.640;10.578;2023-02-16T07:49:32;101415.91;;;24.28;33.10
59240;BME280;45010;53.640;10.578;2023-02-16T07:52:33;101412.06;;;24.24;33.01
59240;BME280;45010;53.640;10.578;2023-02-16T07:55:40;101410.00;;;24.26;32.95
59240;BME280;45010;53.640;10.578;2023-02-16T07:58:41;101415.31;;;24.33;33.06
59240;BME280;45010;53.640;10.578;2023-02-16T08:01:41;101419.81;;;24.33;33.32
59240;BME280;45010;53.640;10.578;2023-02-16T08:04:42;101408.97;;;24.27;32.83
59240;BME280;45010;53.640;10.578;2023-02-16T08:07:43;101417.72;;;24.35;32.93
59240;BME280;45010;53.640;10.578;2023-02-16T08:10:44;101420.41;;;24.35;33.28
59240;BME280;45010;53.640;10.578;2023-02-16T08:13:45;101414.91;;;24.29;32.92
59240;BME280;45010;53.640;10.578;2023-02-16T08:16:45;101422.06;;;24.36;32.88
59240;BME280;45010;53.640;10.578;2023-02-16T08:19:46;101418.34;;;24.37;32.95
59240;BME280;45010;53.640;10.578;2023-02-16T08:22:46;101413.03;;;24.37;32.98
59240;BME280;45010;53.640;10.578;2023-02-16T08:25:46;101405.03;;;24.37;32.68
59240;BME280;45010;53.640;10.578;2023-02-16T08:28:47;101378.84;;;24.20;32.96
59240;BME280;45010;53.640;10.578;2023-02-16T08:31:50;101418.34;;;24.37;32.82
59240;BME280;45010;53.640;10.578;2023-02-16T08:34:51;101412.00;;;24.38;32.70
59240;BME280;45010;53.640;10.578;2023-02-16T08:37:51;101415.69;;;24.37;32.86
59240;BME280;45010;53.640;10.578;2023-02-16T08:40:52;101406.06;;;24.36;33.06
59240;BME280;45010;53.640;10.578;2023-02-16T08:43:53;101412.00;;;24.38;32.65
59240;BME280;45010;53.640;10.578;2023-02-16T08:46:55;101408.09;;;24.34;33.08
59240;BME280;45010;53.640;10.578;2023-02-16T08:49:56;101410.97;;;24.39;33.31
59240;BME280;45010;53.640;10.578;2023-02-16T08:52:56;101393.94;;;24.40;33.50
59240;BME280;45010;53.640;10.578;2023-02-16T08:56:01;101396.00;;;24.38;33.59
59240;BME280;45010;53.640;10.578;2023-02-16T08:59:02;101392.47;;;24.44;33.50
59240;BME280;45010;53.640;10.578;2023-02-16T09:02:03;101395.56;;;24.41;33.42
59240;BME280;45010;53.640;10.578;2023-02-16T09:05:03;101396.34;;;24.48;33.28
59240;BME280;45010;53.640;10.578;2023-02-16T09:08:04;101407.03;;;24.48;33.40
59240;BME280;45010;53.640;10.578;2023-02-16T09:11:06;101391.44;;;24.45;33.15
59240;BME280;45010;53.640;10.578;2023-02-16T09:14:07;101410.28;;;24.50;33.12
59240;BME280;45010;53.640;10.578;2023-02-16T09:17:08;101399.63;;;24.50;33.24
59240;BME280;45010;53.640;10.578;2023-02-16T09:20:09;101398.59;;;24.51;33.20
59240;BME280;45010;53.640;10.578;2023-02-16T09:23:10;101397.16;;;24.49;32.98
59240;BME280;45010;53.640;10.578;2023-02-16T09:26:11;101409.84;;;24.53;32.95
59240;BME280;45010;53.640;10.578;2023-02-16T09:29:12;101386.09;;;24.45;32.93
59240;BME280;45010;53.640;10.578;2023-02-16T09:32:12;101400.38;;;24.57;32.93
59240;BME280;45010;53.640;10.578;2023-02-16T09:35:14;101396.69;;;24.58;32.74
59240;BME280;45010;53.640;10.578;2023-02-16T09:38:14;101400.38;;;24.57;32.76
59240;BME280;45010;53.640;10.578;2023-02-16T09:41:39;101424.56;;;24.63;32.82
59240;BME280;45010;53.640;10.578;2023-02-16T09:45:07;101435.25;;;24.63;32.73
59240;BME280;45010;53.640;10.578;2023-02-16T09:48:27;101420.69;;;24.58;32.56
59240;BME280;45010;53.640;10.578;2023-02-16T09:51:35;101425.00;;;24.60;32.71
59240;BME280;45010;53.640;10.578;2023-02-16T09:54:49;101422.94;;;24.62;32.54
59240;BME280;45010;53.640;10.578;2023-02-16T09:58:03;101431.13;;;24.67;32.50
59240;BME280;45010;53.640;10.578;2023-02-16T10:08:06;101434.97;;;24.71;32.55
59240;BME280;45010;53.640;10.578;2023-02-16T10:11:28;101444.63;;;24.72;32.41
59240;BME280;45010;53.640;10.578;2023-02-16T10:14:48;101426.22;;;24.64;32.43
59240;BME280;45010;53.640;10.578;2023-02-16T10:17:56;101428.22;;;24.68;32.58
59240;BME280;45010;53.640;10.578;2023-02-16T10:21:01;101441.53;;;24.75;32.27
59240;BME280;45010;53.640;10.578;2023-02-16T10:24:05;101437.22;;;24.74;32.26
59240;BME280;45010;53.640;10.578;2023-02-16T10:27:11;101429.81;;;24.76;32.25
59240;BME280;45010;53.640;10.578;2023-02-16T10:30:14;101442.13;;;24.77;32.18
59240;BME280;45010;53.640;10.578;2023-02-16T10:43:16;101425.69;;;24.80;32.18
59240;BME280;45010;53.640;10.578;2023-02-16T10:46:24;101431.03;;;24.80;32.18
59240;BME280;45010;53.640;10.578;2023-02-16T10:49:25;101438.03;;;24.81;32.05
59240;BME280;45010;53.640;10.578;2023-02-16T10:52:34;101434.31;;;24.82;32.10
59240;BME280;45010;53.640;10.578;2023-02-16T10:55:37;101429.41;;;24.79;31.95
59240;BME280;45010;53.640;10.578;2023-02-16T10:58:40;101432.28;;;24.84;32.06
59240;BME280;45010;53.640;10.578;2023-02-16T11:01:43;101419.34;;;24.81;32.09
59240;BME280;45010;53.640;10.578;2023-02-16T11:04:47;101431.66;;;24.82;32.00
59240;BME280;45010;53.640;10.578;2023-02-16T11:07:52;101422.84;;;24.82;32.10
59240;BME280;45010;53.640;10.578;2023-02-16T11:10:53;101424.03;;;24.86;31.92
59240;BME280;45010;53.640;10.578;2023-02-16T11:14:20;101426.50;;;24.88;31.89
59240;BME280;45010;53.640;10.578;2023-02-16T11:17:22;101418.09;;;24.84;31.93
59240;BME280;45010;53.640;10.578;2023-02-16T11:23:56;101428.75;;;24.91;31.81
59240;BME280;45010;53.640;10.578;2023-02-16T11:27:13;101425.91;;;24.85;31.72
59240;BME280;45010;53.640;10.578;2023-02-16T11:30:18;101418.94;;;24.84;31.46
59240;BME280;45010;53.640;10.578;2023-02-16T11:33:25;101415.03;;;24.80;31.71
59240;BME280;45010;53.640;10.578;2023-02-16T11:36:28;101431.84;;;24.88;31.78
59240;BME280;45010;53.640;10.578;2023-02-16T11:39:34;101433.47;;;24.89;32.06
59240;BME280;45010;53.640;10.578;2023-02-16T11:42:40;101420.56;;;24.85;32.10
59240;BME280;45010;53.640;10.578;2023-02-16T11:46:14;101417.91;;;24.85;31.93
59240;BME280;45010;53.640;10.578;2023-02-16T11:49:32;101422.38;;;24.92;32.22
59240;BME280;45010;53.640;10.578;2023-02-16T11:52:33;101417.84;;;24.92;32.20
59240;BME280;45010;53.640;10.578;2023-02-16T11:55:35;101414.56;;;24.90;32.36
59240;BME280;45010;53.640;10.578;2023-02-16T11:58:35;101411.25;;;24.95;32.33
59240;BME280;45010;53.640;10.578;2023-02-16T12:05:24;101396.56;;;24.85;31.96
59240;BME280;45010;53.640;10.578;2023-02-16T12:11:59;101410.00;;;24.97;32.11
59240;BME280;45010;53.640;10.578;2023-02-16T12:18:26;101409.19;;;24.97;32.45
59240;BME280;45010;53.640;10.578;2023-02-16T12:21:40;101383.81;;;24.88;32.42
59240;BME280;45010;53.640;10.578;2023-02-16T12:31:22;101386.81;;;24.98;32.23
59240;BME280;45010;53.640;10.578;2023-02-16T12:34:58;101367.38;;;24.91;32.17
59240;BME280;45010;53.640;10.578;2023-02-16T12:41:20;101387.78;;;25.04;32.23
59240;BME280;45010;53.640;10.578;2023-02-16T12:44:46;101375.28;;;25.04;32.16
59240;BME280;45010;53.640;10.578;2023-02-16T12:47:52;101371.41;;;25.00;31.91
59240;BME280;45010;53.640;10.578;2023-02-16T12:50:54;101361.16;;;24.97;31.94
59240;BME280;45010;53.640;10.578;2023-02-16T12:57:23;101377.19;;;24.97;31.99
59240;BME280;45010;53.640;10.578;2023-02-16T13:00:36;101348.75;;;24.77;31.87
59240;BME280;45010;53.640;10.578;2023-02-16T13:03:51;101386.06;;;24.91;31.83
59240;BME280;45010;53.640;10.578;2023-02-16T13:10:26;101381.13;;;24.88;31.85
59240;BME280;45010;53.640;10.578;2023-02-16T13:13:32;101376.00;;;24.86;31.81
59240;BME280;45010;53.640;10.578;2023-02-16T13:16:49;101376.47;;;24.83;31.89
59240;BME280;45010;53.640;10.578;2023-02-16T13:19:52;101374.00;;;24.81;32.10
59240;BME280;45010;53.640;10.578;2023-02-16T13:23:13;101384.06;;;24.79;31.88
59240;BME280;45010;53.640;10.578;2023-02-16T13:30:00;101364.38;;;24.74;31.81
59240;BME280;45010;53.640;10.578;2023-02-16T13:43:13;101327.34;;;24.58;31.90
59240;BME280;45010;53.640;10.578;2023-02-16T13:46:26;101334.34;;;24.60;31.91
59240;BME280;45010;53.640;10.578;2023-02-16T13:49:32;101341.69;;;24.64;31.92
59240;BME280;45010;53.640;10.578;2023-02-16T13:52:38;101342.72;;;24.63;31.98
59240;BME280;45010;53.640;10.578;2023-02-16T13:55:40;101339.03;;;24.64;32.01
59240;BME280;45010;53.640;10.578;2023-02-16T13:58:40;101344.56;;;24.63;31.88
59240;BME280;45010;53.640;10.578;2023-02-16T14:01:42;101329.44;;;24.56;32.00
59240;BME280;45010;53.640;10.578;2023-02-16T14:11:20;101345.84;;;24.53;32.06
59240;BME280;45010;53.640;10.578;2023-02-16T14:17:53;101339.34;;;24.49;31.91
59240;BME280;45010;53.640;10.578;2023-02-16T14:21:04;101346.72;;;24.47;32.08
59240;BME280;45010;53.640;10.578;2023-02-16T14:24:11;101330.78;;;24.40;31.95
59240;BME280;45010;53.640;10.578;2023-02-16T14:27:12;101345.53;;;24.43;32.38
59240;BME280;45010;53.640;10.578;2023-02-16T14:30:19;101335.09;;;24.35;32.20
59240;BME280;45010;53.640;10.578;2023-02-16T14:33:40;101333.69;;;24.32;32.10
59240;BME280;45010;53.640;10.578;2023-02-16T14:37:35;101332.44;;;24.35;32.35
59240;BME280;45010;53.640;10.578;2023-02-16T14:40:41;101319.38;;;24.26;32.12
59240;BME280;45010;53.640;10.578;2023-02-16T14:43:45;101317.28;;;24.28;32.10
59240;BME280;45010;53.640;10.578;2023-02-16T14:47:05;101311.56;;;24.25;32.66
59240;BME280;45010;53.640;10.578;2023-02-16T14:50:27;101313.84;;;24.21;33.07
59240;BME280;45010;53.640;10.578;2023-02-16T14:56:42;101290.78;;;24.01;33.04
59240;BME280;45010;53.640;10.578;2023-02-16T15:06:00;101293.63;;;24.07;33.52
59240;BME280;45010;53.640;10.578;2023-02-16T15:09:14;101296.91;;;24.09;33.54
59240;BME280;45010;53.640;10.578;2023-02-16T15:12:15;101305.91;;;24.14;33.70
59240;BME280;45010;53.640;10.578;2023-02-16T15:15:34;101303.03;;;24.16;33.58
59240;BME280;45010;53.640;10.578;2023-02-16T15:18:43;101294.81;;;24.17;33.20
59240;BME280;45010;53.640;10.578;2023-02-16T15:21:44;101295.41;;;24.20;33.53
59240;BME280;45010;53.640;10.578;2023-02-16T15:24:53;101289.06;;;24.21;33.33
59240;BME280;45010;53.640;10.578;2023-02-16T15:28:25;101288.84;;;24.22;33.38
59240;BME280;45010;53.640;10.578;2023-02-16T15:31:34;101275.56;;;24.15;33.54
59240;BME280;45010;53.640;10.578;2023-02-16T15:34:36;101293.97;;;24.24;33.39
59240;BME280;45010;53.640;10.578;2023-02-16T15:37:36;101286.78;;;24.24;33.26
59240;BME280;45010;53.640;10.578;2023-02-16T15:40:39;101301.31;;;24.28;33.22
59240;BME280;45010;53.640;10.578;2023-02-16T15:43:47;101288.63;;;24.24;33.50
59240;BME280;45010;53.640;10.578;2023-02-16T15:46:48;101297.63;;;24.29;33.14
59240;BME280;45010;53.640;10.578;2023-02-16T15:49:49;101298.25;;;24.25;33.18
59240;BME280;45010;53.640;10.578;2023-02-16T15:52:49;101284.72;;;24.26;33.14
59240;BME280;45010;53.640;10.578;2023-02-16T15:55:50;101282.47;;;24.23;33.17
59240;BME280;45010;53.640;10.578;2023-02-16T15:58:51;101300.44;;;24.35;33.12
59240;BME280;45010;53.640;10.578;2023-02-16T16:05:02;101303.72;;;24.37;33.21
59240;BME280;45010;53.640;10.578;2023-02-16T16:08:04;101304.16;;;24.34;33.24
59240;BME280;45010;53.640;10.578;2023-02-16T16:11:06;101308.63;;;24.40;33.21
59240;BME280;45010;53.640;10.578;2023-02-16T16:14:06;101316.41;;;24.41;33.15
59240;BME280;45010;53.640;10.578;2023-02-16T16:17:12;101293.47;;;24.34;33.14
59240;BME280;45010;53.640;10.578;2023-02-16T16:20:34;101303.28;;;24.40;33.03
59240;BME280;45010;53.640;10.578;2023-02-16T16:23:35;101318.41;;;24.46;33.16
59240;BME280;45010;53.640;10.578;2023-02-16T16:27:04;101307.38;;;24.42;33.18
59240;BME280;45010;53.640;10.578;2023-02-16T16:33:21;101318.00;;;24.49;32.83
59240;BME280;45010;53.640;10.578;2023-02-16T16:39:39;101298.72;;;24.47;32.93
59240;BME280;45010;53.640;10.578;2023-02-16T16:43:04;101311.59;;;24.57;33.07
59240;BME280;45010;53.640;10.578;2023-02-16T16:46:22;101283.59;;;24.41;32.82
59240;BME280;45010;53.640;10.578;2023-02-16T16:49:23;101314.84;;;24.59;32.80
59240;BME280;45010;53.640;10.578;2023-02-16T16:52:30;101306.63;;;24.61;32.80
59240;BME280;45010;53.640;10.578;2023-02-16T16:55:33;101291.34;;;24.49;32.72
59240;BME280;45010;53.640;10.578;2023-02-16T16:58:33;101292.25;;;24.62;32.95
59240;BME280;45010;53.640;10.578;2023-02-16T17:01:33;101294.94;;;24.62;32.95
59240;BME280;45010;53.640;10.578;2023-02-16T17:04:34;101291.22;;;24.63;32.84
59240;BME280;45010;53.640;10.578;2023-02-16T17:07:35;101280.19;;;24.59;33.02
59240;BME280;45010;53.640;10.578;2023-02-16T17:10:37;101278.19;;;24.54;33.01
59240;BME280;45010;53.640;10.578;2023-02-16T17:13:37;101281.16;;;24.65;33.14
59240;BME280;45010;53.640;10.578;2023-02-16T17:16:43;101280.94;;;24.66;33.01
59240;BME280;45010;53.640;10.578;2023-02-16T17:19:44;101279.69;;;24.69;33.22
59240;BME280;45010;53.640;10.578;2023-02-16T17:22:45;101285.03;;;24.69;33.17
59240;BME280;45010;53.640;10.578;2023-02-16T17:25:45;101276.25;;;24.62;32.93
59240;BME280;45010;53.640;10.578;2023-02-16T17:28:46;101284.19;;;24.68;32.98
59240;BME280;45010;53.640;10.578;2023-02-16T17:31:46;101281.78;;;24.67;33.08
59240;BME280;45010;53.640;10.578;2023-02-16T17:34:46;101287.09;;;24.67;33.17
59240;BME280;45010;53.640;10.578;2023-02-16T17:37:47;101285.47;;;24.66;33.06
59240;BME280;45010;53.640;10.578;2023-02-16T17:40:49;101271.97;;;24.61;32.82